createdAt,value
2022-09-28T00:01:37.486Z,8.70
2022-09-28T00:05:50.002Z,8.64
2022-09-28T00:10:02.306Z,8.70
2022-09-28T00:14:14.805Z,8.79
2022-09-28T00:18:27.653Z,8.83
2022-09-28T00:22:40.530Z,8.86
2022-09-28T00:26:55.261Z,8.88
2022-09-28T00:31:07.622Z,8.85
2022-09-28T00:35:20.179Z,8.93
2022-09-28T00:39:32.802Z,8.95
2022-09-28T00:43:45.215Z,8.92
2022-09-28T00:47:59.807Z,8.85
2022-09-28T00:52:17.422Z,8.86
2022-09-28T00:56:33.392Z,8.86
2022-09-28T01:00:46.096Z,8.91
2022-09-28T01:05:00.241Z,8.96
2022-09-28T01:09:14.774Z,9.01
2022-09-28T01:13:28.035Z,8.98
2022-09-28T01:18:08.322Z,8.75
2022-09-28T01:22:35.540Z,8.64
2022-09-28T01:27:26.023Z,8.73
2022-09-28T01:31:44.997Z,8.80
2022-09-28T01:36:27.527Z,8.83
2022-09-28T01:40:41.316Z,8.85
2022-09-28T01:44:59.096Z,8.95
2022-09-28T01:49:23.264Z,8.85
2022-09-28T01:53:42.065Z,8.98
2022-09-28T01:58:04.195Z,8.89
2022-09-28T02:02:23.513Z,8.81
2022-09-28T02:06:42.032Z,8.83
2022-09-28T02:11:05.086Z,8.82
2022-09-28T02:15:28.453Z,8.82
2022-09-28T02:19:42.087Z,8.72
2022-09-28T02:24:03.539Z,8.83
2022-09-28T02:28:16.144Z,8.74
2022-09-28T02:32:31.591Z,8.74
2022-09-28T02:36:45.771Z,8.61
2022-09-28T02:41:26.561Z,8.48
2022-09-28T02:46:09.176Z,8.44
2022-09-28T02:50:44.372Z,8.18
2022-09-28T02:55:15.673Z,8.14
2022-09-28T02:59:46.882Z,7.91
2022-09-28T03:04:14.578Z,7.96
2022-09-28T03:08:34.687Z,7.90
2022-09-28T03:12:49.769Z,7.98
2022-09-28T03:17:02.180Z,8.08
2022-09-28T03:21:15.641Z,8.16
2022-09-28T03:25:28.645Z,8.29
2022-09-28T03:29:41.517Z,8.26
2022-09-28T03:33:53.990Z,8.35
2022-09-28T03:38:06.852Z,8.33
2022-09-28T03:42:19.310Z,8.35
2022-09-28T03:46:31.616Z,8.31
2022-09-28T03:50:45.857Z,8.44
2022-09-28T03:54:58.413Z,8.55
2022-09-28T03:59:10.866Z,8.64
2022-09-28T04:03:23.452Z,8.63
2022-09-28T04:07:35.804Z,8.74
2022-09-28T04:12:03.264Z,8.81
2022-09-28T04:16:18.678Z,8.83
2022-09-28T04:20:31.290Z,8.80
2022-09-28T04:24:44.351Z,8.92
2022-09-28T04:29:15.087Z,8.91
2022-09-28T04:33:27.570Z,8.92
2022-09-28T04:37:39.927Z,8.89
2022-09-28T04:41:52.539Z,8.96
2022-09-28T04:46:08.701Z,8.96
2022-09-28T04:50:21.365Z,8.98
2022-09-28T04:54:34.035Z,8.85
2022-09-28T04:58:51.729Z,8.83
2022-09-28T05:03:05.742Z,8.91
2022-09-28T05:07:18.061Z,8.79
2022-09-28T05:11:30.432Z,8.67
2022-09-28T05:15:43.504Z,8.73
2022-09-28T05:19:55.786Z,8.75
2022-09-28T05:24:08.409Z,8.70
2022-09-28T05:28:25.959Z,8.66
2022-09-28T05:32:45.061Z,8.74
2022-09-28T05:36:57.469Z,8.63
2022-09-28T05:41:09.807Z,8.63
2022-09-28T05:45:23.880Z,8.73
2022-09-28T05:49:36.344Z,8.68
2022-09-28T05:53:48.958Z,8.69
2022-09-28T05:58:02.972Z,8.66
2022-09-28T06:02:15.325Z,8.70
2022-09-28T06:06:27.819Z,8.80
2022-09-28T06:10:40.735Z,8.83
2022-09-28T06:14:53.064Z,8.88
2022-09-28T06:19:05.550Z,8.87
2022-09-28T06:23:17.929Z,8.91
2022-09-28T06:27:30.260Z,8.83
2022-09-28T06:31:42.672Z,8.88
2022-09-28T06:35:55.201Z,9.08
2022-09-28T06:40:08.329Z,9.01
2022-09-28T06:44:20.699Z,9.04
2022-09-28T06:48:34.299Z,8.97
2022-09-28T06:52:46.737Z,9.01
2022-09-28T06:56:59.024Z,9.11
2022-09-28T07:01:12.780Z,9.43
2022-09-28T07:05:28.291Z,9.35
2022-09-28T07:09:44.982Z,9.39
2022-09-28T07:14:00.528Z,9.44
2022-09-28T07:18:13.428Z,9.45
2022-09-28T07:22:38.598Z,9.54
2022-09-28T07:26:53.971Z,9.57
2022-09-28T07:31:06.630Z,9.72
2022-09-28T07:35:19.043Z,9.85
2022-09-28T07:39:31.486Z,9.95
2022-09-28T07:43:44.191Z,9.82
2022-09-28T07:47:56.842Z,9.94
2022-09-28T07:52:09.858Z,10.04
2022-09-28T07:56:22.223Z,10.22
2022-09-28T08:00:34.688Z,9.95
2022-09-28T08:04:48.976Z,10.02
2022-09-28T08:09:02.556Z,10.16
2022-09-28T08:13:17.078Z,10.20
2022-09-28T08:17:29.585Z,10.11
2022-09-28T08:21:47.697Z,10.26
2022-09-28T08:26:00.353Z,10.41
2022-09-28T08:30:13.114Z,10.49
2022-09-28T08:34:25.723Z,10.38
2022-09-28T08:38:38.148Z,10.43
2022-09-28T08:42:55.876Z,10.70
2022-09-28T08:47:36.650Z,10.91
2022-09-28T08:51:57.098Z,11.23
2022-09-28T08:56:25.036Z,10.86
2022-09-28T09:00:49.922Z,11.06
2022-09-28T09:05:06.697Z,10.70
2022-09-28T09:09:44.479Z,10.07
2022-09-28T09:14:12.592Z,9.72
2022-09-28T09:18:38.069Z,9.44
2022-09-28T09:23:12.796Z,9.29
2022-09-28T09:27:31.941Z,9.25
2022-09-28T09:31:53.911Z,9.59
2022-09-28T09:36:15.024Z,10.26
2022-09-28T09:40:33.248Z,10.42
2022-09-28T09:44:55.123Z,10.59
2022-09-28T09:49:21.354Z,10.12
2022-09-28T09:53:44.082Z,10.46
2022-09-28T09:58:00.894Z,10.15
2022-09-28T10:02:28.980Z,10.15
2022-09-28T10:06:43.206Z,10.23
2022-09-28T10:11:19.751Z,10.70
2022-09-28T10:15:34.985Z,11.16
2022-09-28T10:19:47.548Z,11.37
2022-09-28T10:24:03.509Z,11.84
2022-09-28T10:28:23.402Z,11.71
2022-09-28T10:32:41.895Z,11.66
2022-09-28T10:37:01.732Z,12.13
2022-09-28T10:41:17.443Z,11.29
2022-09-28T10:45:36.539Z,11.80
2022-09-28T10:49:50.499Z,11.59
2022-09-28T10:54:03.736Z,11.77
2022-09-28T10:58:41.272Z,12.18
2022-09-28T11:02:53.996Z,12.26
2022-09-28T11:07:17.741Z,12.48
2022-09-28T11:11:32.170Z,11.67
2022-09-28T11:15:45.118Z,12.34
2022-09-28T11:20:00.495Z,11.67
2022-09-28T11:24:19.058Z,11.39
2022-09-28T11:28:38.379Z,11.59
2022-09-28T11:32:53.084Z,11.35
2022-09-28T11:37:15.811Z,11.34
2022-09-28T11:41:48.641Z,12.29
2022-09-28T11:46:08.219Z,12.22
2022-09-28T11:50:24.908Z,12.80
2022-09-28T11:54:55.427Z,13.40
2022-09-28T11:59:29.374Z,14.09
2022-09-28T12:03:47.056Z,13.68
2022-09-28T12:08:09.067Z,13.15
2022-09-28T12:12:26.346Z,12.90
2022-09-28T12:17:08.672Z,13.08
2022-09-28T12:21:47.939Z,11.79
2022-09-28T12:26:04.429Z,11.62
2022-09-28T12:30:22.764Z,11.86
2022-09-28T12:34:35.223Z,12.40
2022-09-28T12:39:18.107Z,12.19
2022-09-28T12:43:45.115Z,11.65
2022-09-28T12:48:16.197Z,11.54
2022-09-28T12:52:37.821Z,11.23
2022-09-28T12:57:02.928Z,10.90
2022-09-28T13:01:36.494Z,11.43
2022-09-28T13:06:07.868Z,11.20
2022-09-28T13:10:33.479Z,10.89
2022-09-28T13:15:07.306Z,10.63
2022-09-28T13:19:28.645Z,11.23
2022-09-28T13:23:46.988Z,11.03
2022-09-28T13:28:03.630Z,11.29
2022-09-28T13:32:17.367Z,10.85
2022-09-28T13:36:29.737Z,10.72
2022-09-28T13:41:06.153Z,11.01
2022-09-28T13:45:21.989Z,11.60
2022-09-28T13:49:57.053Z,11.90
2022-09-28T13:54:38.158Z,11.12
2022-09-28T13:58:56.476Z,11.26
2022-09-28T14:03:26.519Z,11.08
2022-09-28T14:07:39.033Z,11.42
2022-09-28T14:11:56.274Z,11.44
2022-09-28T14:16:28.276Z,10.60
2022-09-28T14:20:54.521Z,11.01
2022-09-28T14:25:15.951Z,11.01
2022-09-28T14:29:32.430Z,11.28
2022-09-28T14:33:55.536Z,10.97
2022-09-28T14:38:35.800Z,10.76
2022-09-28T14:43:26.685Z,10.89
2022-09-28T14:48:05.419Z,10.98
2022-09-28T14:52:36.395Z,10.92
2022-09-28T14:56:55.173Z,10.61
2022-09-28T15:01:18.143Z,10.67
2022-09-28T15:05:43.169Z,10.53
2022-09-28T15:09:58.040Z,10.78
2022-09-28T15:14:12.073Z,10.58
2022-09-28T15:19:02.273Z,10.62
2022-09-28T15:23:38.141Z,10.75
2022-09-28T15:28:17.092Z,10.84
2022-09-28T15:32:32.480Z,10.65
2022-09-28T15:36:49.128Z,10.62
2022-09-28T15:41:06.210Z,10.54
2022-09-28T15:45:40.782Z,10.27
2022-09-28T15:50:09.985Z,10.16
2022-09-28T15:54:37.164Z,9.99
2022-09-28T15:59:11.335Z,10.01
2022-09-28T16:03:29.699Z,9.92
2022-09-28T16:07:42.417Z,9.97
2022-09-28T16:11:55.089Z,9.97
2022-09-28T16:16:15.509Z,9.86
2022-09-28T16:20:37.233Z,9.87
2022-09-28T16:24:58.349Z,9.87
2022-09-28T16:29:27.388Z,9.84
2022-09-28T16:33:58.761Z,9.76
2022-09-28T16:38:15.096Z,9.51
2022-09-28T16:42:28.464Z,9.48
2022-09-28T16:46:40.822Z,9.57
2022-09-28T16:50:53.139Z,9.59
2022-09-28T16:55:38.827Z,9.38
2022-09-28T16:59:48.573Z,9.35
2022-09-28T17:04:02.894Z,9.29
2022-09-28T17:08:18.202Z,9.27
2022-09-28T17:12:30.745Z,9.18
2022-09-28T17:17:06.792Z,9.08
2022-09-28T17:21:19.265Z,9.12
2022-09-28T17:25:31.675Z,8.96
2022-09-28T17:29:44.160Z,9.00
2022-09-28T17:33:56.861Z,9.00
2022-09-28T17:38:12.613Z,8.94
2022-09-28T17:42:25.109Z,9.00
2022-09-28T17:46:40.301Z,9.00
2022-09-28T17:50:52.753Z,8.99
2022-09-28T17:55:05.849Z,8.85
2022-09-28T17:59:19.835Z,8.99
2022-09-28T18:03:33.913Z,8.82
2022-09-28T18:07:47.785Z,8.79
2022-09-28T18:12:04.732Z,8.90
2022-09-28T18:16:17.964Z,8.76
2022-09-28T18:20:30.534Z,8.92
2022-09-28T18:24:43.647Z,8.85
2022-09-28T18:28:56.230Z,8.85
2022-09-28T18:33:09.448Z,8.96
2022-09-28T18:37:24.167Z,8.88
2022-09-28T18:41:37.186Z,8.82
2022-09-28T18:45:50.127Z,8.88
2022-09-28T18:50:02.438Z,8.76
2022-09-28T18:54:15.309Z,8.83
2022-09-28T18:58:28.331Z,8.89
2022-09-28T19:02:41.691Z,8.85
2022-09-28T19:06:55.201Z,8.81
2022-09-28T19:11:12.508Z,8.83
2022-09-28T19:15:26.391Z,8.80
2022-09-28T19:19:39.305Z,8.82
2022-09-28T19:23:52.815Z,8.84
2022-09-28T19:28:05.284Z,8.89
2022-09-28T19:32:17.658Z,8.89
2022-09-28T19:36:30.629Z,8.96
2022-09-28T19:40:43.000Z,8.96
2022-09-28T19:44:55.597Z,8.90
2022-09-28T19:49:13.523Z,8.95
2022-09-28T19:53:39.432Z,8.84
2022-09-28T19:57:52.846Z,8.92
2022-09-28T20:02:07.573Z,9.01
2022-09-28T20:06:20.225Z,8.87
2022-09-28T20:10:32.709Z,8.85
2022-09-28T20:14:45.140Z,8.75
2022-09-28T20:19:01.623Z,8.81
2022-09-28T20:23:14.068Z,8.92
2022-09-28T20:27:27.835Z,8.80
2022-09-28T20:31:40.832Z,8.74
2022-09-28T20:35:53.468Z,8.80
2022-09-28T20:40:06.312Z,8.83
2022-09-28T20:44:18.734Z,8.59
2022-09-28T20:48:32.639Z,8.75
2022-09-28T20:52:45.063Z,8.70
2022-09-28T20:56:57.537Z,8.64
2022-09-28T21:01:18.000Z,8.74
2022-09-28T21:05:30.761Z,8.50
2022-09-28T21:09:44.906Z,8.56
2022-09-28T21:13:59.700Z,8.54
2022-09-28T21:18:12.293Z,8.55
2022-09-28T21:22:24.801Z,8.47
2022-09-28T21:26:37.484Z,8.37
2022-09-28T21:30:52.292Z,8.42
2022-09-28T21:35:04.902Z,8.48
2022-09-28T21:39:18.584Z,8.29
2022-09-28T21:43:32.454Z,8.33
2022-09-28T21:47:48.333Z,8.34
2022-09-28T21:52:00.830Z,8.43
2022-09-28T21:56:13.577Z,8.30
2022-09-28T22:00:26.181Z,8.35
2022-09-28T22:04:38.709Z,8.24
2022-09-28T22:08:51.867Z,8.19
2022-09-28T22:13:04.365Z,8.18
2022-09-28T22:17:16.703Z,8.11
2022-09-28T22:21:32.739Z,7.99
2022-09-28T22:25:45.185Z,7.89
2022-09-28T22:29:57.792Z,7.85
2022-09-28T22:34:10.677Z,7.80
2022-09-28T22:38:25.285Z,7.77
2022-09-28T22:42:38.941Z,7.62
2022-09-28T22:46:51.807Z,7.71
2022-09-28T22:51:07.025Z,7.65
2022-09-28T22:55:19.625Z,7.66
2022-09-28T22:59:31.940Z,7.68
2022-09-28T23:03:45.631Z,7.67
2022-09-28T23:07:58.233Z,7.70
2022-09-28T23:12:10.557Z,7.70
2022-09-28T23:16:27.428Z,7.67
2022-09-28T23:20:40.236Z,7.67
2022-09-28T23:24:52.675Z,7.68
2022-09-28T23:29:05.241Z,7.65
2022-09-28T23:33:19.293Z,7.59
2022-09-28T23:37:31.800Z,7.64
2022-09-28T23:41:44.177Z,7.61
2022-09-28T23:45:56.833Z,7.70
2022-09-28T23:50:09.915Z,7.67
2022-09-28T23:54:22.999Z,7.74
2022-09-28T23:58:35.860Z,7.71
